Hovedside
METAR-TAF:

METAR-TAF

Lufthavner :

Alexandria-Borg El Arab, Egypt

breddegrad: 31-31N, lengdegrad: 030-10E, høyde over havet: 54 m

Gjeldene værobservasjon

Denne rapporten ble laget for 1 time og 13 minutter siden, klokken 19:00 UTC
Vind 5 kt fra Øst
Temperatur 19°C
Luftfuktighet 88%
Trykk 1018 hPa
Sikt 10 km eller mer
ingen skyer under 1500 m og ingen bygeskyer

METAR: HEBA 281900Z 08005KT CAVOK 19/17 Q1018 NOSIG

Tid: 22:13 (20:13 UTC)

Varsel

Denne rapporten ble laget for 3 timer og 13 minutter siden, klokken 17:00 UTC
Varsel gyldig fra 28. klokken 18 UTC til 29. klokken 24 UTC
Vind 5 kt fra Øst
Sikt 10 km eller mer
ingen skyer under 1500 m og ingen bygeskyer
Midlertidig
fra 28. klokken 18 UTC til 29. klokken 07 UTC
Vind 3 kt fra skiftende retning
Sikt: 3000 m
dis
Sannsynlighet 30% :
Midlertidig
fra 29. klokken 03 UTC til 29. klokken 07 UTC
Sikt: 1200 m

TAF: HEBA 281700Z 2818/2924 10005KT CAVOK TEMPO 2818/2907 VRB03KT 3000 BR NSC PROB30 TEMPO 2903/2907 1200

Værobservasjoner og værvarsel for over 4000 flyplasser (METAR- og TAF-rapporter).

Tilgjengelige stasjoner er representert av de røde og gule prikkene på kartet.

Hold musepekeren over prikken for å se navnet på stasjonen.

Klikk så for å se værobservasjoner og -varsler.

For å forandre kartet kan du klikke på den grønne knappen med svart kryss for å zoome inn, på den grønne knappen med strek for å zoome ut, eller på de grønne pilene for å se tilstøtende kart.


METAR-TAF: